sensor_id;sensor_type;location;lat;lon;timestamp;pressure;altitude;pressure_sealevel;temperature
16956;BMP180;8594;52.052;8.354;2023-07-29T00:01:35;99855.00;;;23.60
16956;BMP180;8594;52.052;8.354;2023-07-29T00:04:03;99850.00;;;23.70
16956;BMP180;8594;52.052;8.354;2023-07-29T00:06:30;99858.00;;;23.80
16956;BMP180;8594;52.052;8.354;2023-07-29T00:08:57;99853.00;;;23.70
16956;BMP180;8594;52.052;8.354;2023-07-29T00:11:25;99847.00;;;23.70
16956;BMP180;8594;52.052;8.354;2023-07-29T00:13:52;99841.00;;;23.80
16956;BMP180;8594;52.052;8.354;2023-07-29T00:16:20;99833.00;;;23.50
16956;BMP180;8594;52.052;8.354;2023-07-29T00:18:48;99839.00;;;23.50
16956;BMP180;8594;52.052;8.354;2023-07-29T00:21:15;99845.00;;;23.40
16956;BMP180;8594;52.052;8.354;2023-07-29T00:23:42;99838.00;;;23.70
16956;BMP180;8594;52.052;8.354;2023-07-29T00:26:08;99842.00;;;23.50
16956;BMP180;8594;52.052;8.354;2023-07-29T00:28:37;99842.00;;;23.50
16956;BMP180;8594;52.052;8.354;2023-07-29T00:31:03;99850.00;;;23.50
16956;BMP180;8594;52.052;8.354;2023-07-29T00:33:30;99845.00;;;23.40
16956;BMP180;8594;52.052;8.354;2023-07-29T00:35:57;99838.00;;;23.40
16956;BMP180;8594;52.052;8.354;2023-07-29T00:38:27;99834.00;;;23.20
16956;BMP180;8594;52.052;8.354;2023-07-29T00:40:56;99832.00;;;23.30
16956;BMP180;8594;52.052;8.354;2023-07-29T00:43:23;99826.00;;;23.70
16956;BMP180;8594;52.052;8.354;2023-07-29T00:45:52;99826.00;;;23.80
16956;BMP180;8594;52.052;8.354;2023-07-29T00:48:20;99819.00;;;23.70
16956;BMP180;8594;52.052;8.354;2023-07-29T00:50:47;99825.00;;;23.80
16956;BMP180;8594;52.052;8.354;2023-07-29T00:53:14;99821.00;;;23.40
16956;BMP180;8594;52.052;8.354;2023-07-29T00:55:42;99825.00;;;23.30
16956;BMP180;8594;52.052;8.354;2023-07-29T00:58:09;99819.00;;;23.30
16956;BMP180;8594;52.052;8.354;2023-07-29T01:00:36;99826.00;;;23.00
16956;BMP180;8594;52.052;8.354;2023-07-29T01:03:05;99825.00;;;23.40
16956;BMP180;8594;52.052;8.354;2023-07-29T01:05:39;99821.00;;;23.50
16956;BMP180;8594;52.052;8.354;2023-07-29T01:08:20;99818.00;;;23.60
16956;BMP180;8594;52.052;8.354;2023-07-29T01:10:58;99818.00;;;23.40
16956;BMP180;8594;52.052;8.354;2023-07-29T01:13:39;99819.00;;;23.50
16956;BMP180;8594;52.052;8.354;2023-07-29T01:16:17;99808.00;;;23.50
16956;BMP180;8594;52.052;8.354;2023-07-29T01:18:47;99805.00;;;23.40
16956;BMP180;8594;52.052;8.354;2023-07-29T01:21:16;99804.00;;;23.10
16956;BMP180;8594;52.052;8.354;2023-07-29T01:23:45;99799.00;;;23.00
16956;BMP180;8594;52.052;8.354;2023-07-29T01:26:12;99806.00;;;23.10
16956;BMP180;8594;52.052;8.354;2023-07-29T01:28:39;99804.00;;;23.40
16956;BMP180;8594;52.052;8.354;2023-07-29T01:31:12;99811.00;;;23.00
16956;BMP180;8594;52.052;8.354;2023-07-29T01:33:47;99806.00;;;23.10
16956;BMP180;8594;52.052;8.354;2023-07-29T01:36:22;99808.00;;;23.30
16956;BMP180;8594;52.052;8.354;2023-07-29T01:38:51;99801.00;;;23.30
16956;BMP180;8594;52.052;8.354;2023-07-29T01:41:20;99798.00;;;23.30
16956;BMP180;8594;52.052;8.354;2023-07-29T01:43:47;99789.00;;;23.00
16956;BMP180;8594;52.052;8.354;2023-07-29T01:46:14;99788.00;;;23.30
16956;BMP180;8594;52.052;8.354;2023-07-29T01:48:42;99776.00;;;23.10
16956;BMP180;8594;52.052;8.354;2023-07-29T01:51:12;99772.00;;;23.20
16956;BMP180;8594;52.052;8.354;2023-07-29T01:53:39;99771.00;;;23.10
16956;BMP180;8594;52.052;8.354;2023-07-29T01:56:07;99770.00;;;23.00
16956;BMP180;8594;52.052;8.354;2023-07-29T01:58:34;99785.00;;;23.20
16956;BMP180;8594;52.052;8.354;2023-07-29T02:01:00;99784.00;;;23.00
16956;BMP180;8594;52.052;8.354;2023-07-29T02:03:27;99789.00;;;22.90
16956;BMP180;8594;52.052;8.354;2023-07-29T02:05:54;99790.00;;;22.80
16956;BMP180;8594;52.052;8.354;2023-07-29T02:08:21;99788.00;;;22.60
16956;BMP180;8594;52.052;8.354;2023-07-29T02:10:48;99780.00;;;22.80
16956;BMP180;8594;52.052;8.354;2023-07-29T02:13:16;99788.00;;;22.70
16956;BMP180;8594;52.052;8.354;2023-07-29T02:15:43;99777.00;;;22.90
16956;BMP180;8594;52.052;8.354;2023-07-29T02:18:10;99769.00;;;22.80
16956;BMP180;8594;52.052;8.354;2023-07-29T02:20:37;99773.00;;;23.00
16956;BMP180;8594;52.052;8.354;2023-07-29T02:23:04;99773.00;;;23.20
16956;BMP180;8594;52.052;8.354;2023-07-29T02:25:31;99773.00;;;23.10
16956;BMP180;8594;52.052;8.354;2023-07-29T02:27:58;99772.00;;;23.30
16956;BMP180;8594;52.052;8.354;2023-07-29T02:30:26;99771.00;;;22.80
16956;BMP180;8594;52.052;8.354;2023-07-29T02:32:53;99771.00;;;22.90
16956;BMP180;8594;52.052;8.354;2023-07-29T02:35:20;99767.00;;;23.20
16956;BMP180;8594;52.052;8.354;2023-07-29T02:37:46;99763.00;;;23.00
16956;BMP180;8594;52.052;8.354;2023-07-29T02:40:14;99763.00;;;23.00
16956;BMP180;8594;52.052;8.354;2023-07-29T02:42:41;99768.00;;;22.70
16956;BMP180;8594;52.052;8.354;2023-07-29T02:45:08;99768.00;;;22.70
16956;BMP180;8594;52.052;8.354;2023-07-29T02:47:38;99767.00;;;23.00
16956;BMP180;8594;52.052;8.354;2023-07-29T02:50:06;99763.00;;;22.80
16956;BMP180;8594;52.052;8.354;2023-07-29T02:52:33;99773.00;;;22.60
16956;BMP180;8594;52.052;8.354;2023-07-29T02:55:00;99771.00;;;22.40
16956;BMP180;8594;52.052;8.354;2023-07-29T02:57:27;99772.00;;;22.30
16956;BMP180;8594;52.052;8.354;2023-07-29T02:59:54;99771.00;;;22.50
16956;BMP180;8594;52.052;8.354;2023-07-29T03:02:20;99772.00;;;22.60
16956;BMP180;8594;52.052;8.354;2023-07-29T03:04:49;99766.00;;;22.60
16956;BMP180;8594;52.052;8.354;2023-07-29T03:07:16;99758.00;;;23.00
16956;BMP180;8594;52.052;8.354;2023-07-29T03:09:43;99755.00;;;23.00
16956;BMP180;8594;52.052;8.354;2023-07-29T03:12:10;99755.00;;;22.90
16956;BMP180;8594;52.052;8.354;2023-07-29T03:14:38;99756.00;;;22.90
16956;BMP180;8594;52.052;8.354;2023-07-29T03:17:07;99753.00;;;22.80
16956;BMP180;8594;52.052;8.354;2023-07-29T03:19:33;99751.00;;;22.70
16956;BMP180;8594;52.052;8.354;2023-07-29T03:22:02;99747.00;;;22.80
16956;BMP180;8594;52.052;8.354;2023-07-29T03:24:29;99748.00;;;22.90
16956;BMP180;8594;52.052;8.354;2023-07-29T03:26:56;99746.00;;;23.00
16956;BMP180;8594;52.052;8.354;2023-07-29T03:29:22;99750.00;;;23.00
16956;BMP180;8594;52.052;8.354;2023-07-29T03:31:49;99748.00;;;23.10
16956;BMP180;8594;52.052;8.354;2023-07-29T03:34:16;99755.00;;;23.00
16956;BMP180;8594;52.052;8.354;2023-07-29T03:36:43;99749.00;;;22.90
16956;BMP180;8594;52.052;8.354;2023-07-29T03:39:13;99749.00;;;22.80
16956;BMP180;8594;52.052;8.354;2023-07-29T03:41:40;99745.00;;;22.80
16956;BMP180;8594;52.052;8.354;2023-07-29T03:44:06;99750.00;;;23.00
16956;BMP180;8594;52.052;8.354;2023-07-29T03:46:33;99741.00;;;22.90
16956;BMP180;8594;52.052;8.354;2023-07-29T03:49:00;99741.00;;;22.80
16956;BMP180;8594;52.052;8.354;2023-07-29T03:51:27;99735.00;;;22.90
16956;BMP180;8594;52.052;8.354;2023-07-29T03:53:54;99738.00;;;23.00
16956;BMP180;8594;52.052;8.354;2023-07-29T03:56:22;99737.00;;;22.90
16956;BMP180;8594;52.052;8.354;2023-07-29T03:58:49;99745.00;;;22.80
16956;BMP180;8594;52.052;8.354;2023-07-29T04:01:16;99741.00;;;22.80
16956;BMP180;8594;52.052;8.354;2023-07-29T04:03:42;99743.00;;;22.80
16956;BMP180;8594;52.052;8.354;2023-07-29T04:06:09;99744.00;;;22.70
16956;BMP180;8594;52.052;8.354;2023-07-29T04:08:36;99737.00;;;22.60
16956;BMP180;8594;52.052;8.354;2023-07-29T04:11:03;99738.00;;;22.80
16956;BMP180;8594;52.052;8.354;2023-07-29T04:13:32;99733.00;;;22.90
16956;BMP180;8594;52.052;8.354;2023-07-29T04:15:58;99731.00;;;22.80
16956;BMP180;8594;52.052;8.354;2023-07-29T04:18:25;99730.00;;;22.80
16956;BMP180;8594;52.052;8.354;2023-07-29T04:20:52;99729.00;;;22.80
16956;BMP180;8594;52.052;8.354;2023-07-29T04:23:19;99714.00;;;23.00
16956;BMP180;8594;52.052;8.354;2023-07-29T04:25:46;99720.00;;;22.90
16956;BMP180;8594;52.052;8.354;2023-07-29T04:28:13;99723.00;;;23.00
16956;BMP180;8594;52.052;8.354;2023-07-29T04:30:41;99718.00;;;22.70
16956;BMP180;8594;52.052;8.354;2023-07-29T04:33:08;99721.00;;;22.80
16956;BMP180;8594;52.052;8.354;2023-07-29T04:35:35;99729.00;;;22.90
16956;BMP180;8594;52.052;8.354;2023-07-29T04:38:02;99721.00;;;22.80
16956;BMP180;8594;52.052;8.354;2023-07-29T04:40:29;99724.00;;;22.80
16956;BMP180;8594;52.052;8.354;2023-07-29T04:42:55;99729.00;;;23.00
16956;BMP180;8594;52.052;8.354;2023-07-29T04:45:22;99718.00;;;22.90
16956;BMP180;8594;52.052;8.354;2023-07-29T04:47:51;99717.00;;;22.80
16956;BMP180;8594;52.052;8.354;2023-07-29T04:50:18;99710.00;;;22.90
16956;BMP180;8594;52.052;8.354;2023-07-29T04:52:45;99710.00;;;23.10
16956;BMP180;8594;52.052;8.354;2023-07-29T04:55:12;99709.00;;;23.20
16956;BMP180;8594;52.052;8.354;2023-07-29T04:57:39;99707.00;;;23.10
16956;BMP180;8594;52.052;8.354;2023-07-29T05:00:07;99710.00;;;23.00
16956;BMP180;8594;52.052;8.354;2023-07-29T05:02:35;99705.00;;;22.90
16956;BMP180;8594;52.052;8.354;2023-07-29T05:05:04;99715.00;;;22.90
16956;BMP180;8594;52.052;8.354;2023-07-29T05:07:31;99717.00;;;22.80
16956;BMP180;8594;52.052;8.354;2023-07-29T05:09:58;99716.00;;;23.00
16956;BMP180;8594;52.052;8.354;2023-07-29T05:12:25;99709.00;;;23.10
16956;BMP180;8594;52.052;8.354;2023-07-29T05:14:53;99711.00;;;23.20
16956;BMP180;8594;52.052;8.354;2023-07-29T05:17:19;99696.00;;;23.30
16956;BMP180;8594;52.052;8.354;2023-07-29T05:19:46;99699.00;;;23.20
16956;BMP180;8594;52.052;8.354;2023-07-29T05:22:15;99706.00;;;23.30
16956;BMP180;8594;52.052;8.354;2023-07-29T05:24:41;99714.00;;;23.40
16956;BMP180;8594;52.052;8.354;2023-07-29T05:27:08;99703.00;;;23.30
16956;BMP180;8594;52.052;8.354;2023-07-29T05:29:35;99709.00;;;23.10
16956;BMP180;8594;52.052;8.354;2023-07-29T05:32:03;99709.00;;;22.90
16956;BMP180;8594;52.052;8.354;2023-07-29T05:34:29;99690.00;;;23.10
16956;BMP180;8594;52.052;8.354;2023-07-29T05:36:56;99693.00;;;23.40
16956;BMP180;8594;52.052;8.354;2023-07-29T05:39:25;99687.00;;;23.30
16956;BMP180;8594;52.052;8.354;2023-07-29T05:41:52;99685.00;;;23.40
16956;BMP180;8594;52.052;8.354;2023-07-29T05:44:18;99681.00;;;23.30
16956;BMP180;8594;52.052;8.354;2023-07-29T05:46:45;99691.00;;;23.60
16956;BMP180;8594;52.052;8.354;2023-07-29T05:49:13;99690.00;;;23.30
16956;BMP180;8594;52.052;8.354;2023-07-29T05:51:40;99686.00;;;23.30
16956;BMP180;8594;52.052;8.354;2023-07-29T05:54:07;99684.00;;;23.30
16956;BMP180;8594;52.052;8.354;2023-07-29T05:56:35;99689.00;;;23.30
16956;BMP180;8594;52.052;8.354;2023-07-29T05:59:02;99704.00;;;23.20
16956;BMP180;8594;52.052;8.354;2023-07-29T06:01:29;99699.00;;;23.10
16956;BMP180;8594;52.052;8.354;2023-07-29T06:03:56;99708.00;;;23.10
16956;BMP180;8594;52.052;8.354;2023-07-29T06:06:23;99717.00;;;23.20
16956;BMP180;8594;52.052;8.354;2023-07-29T06:08:50;99722.00;;;23.20
16956;BMP180;8594;52.052;8.354;2023-07-29T06:11:17;99719.00;;;23.20
16956;BMP180;8594;52.052;8.354;2023-07-29T06:13:47;99719.00;;;23.20
16956;BMP180;8594;52.052;8.354;2023-07-29T06:16:14;99724.00;;;23.30
16956;BMP180;8594;52.052;8.354;2023-07-29T06:18:41;99732.00;;;23.30
16956;BMP180;8594;52.052;8.354;2023-07-29T06:21:08;99729.00;;;23.20
16956;BMP180;8594;52.052;8.354;2023-07-29T06:23:38;99728.00;;;23.10
16956;BMP180;8594;52.052;8.354;2023-07-29T06:26:04;99726.00;;;23.30
16956;BMP180;8594;52.052;8.354;2023-07-29T06:28:32;99728.00;;;23.20
16956;BMP180;8594;52.052;8.354;2023-07-29T06:31:00;99703.00;;;23.20
16956;BMP180;8594;52.052;8.354;2023-07-29T06:33:27;99690.00;;;23.60
16956;BMP180;8594;52.052;8.354;2023-07-29T06:35:54;99675.00;;;23.90
16956;BMP180;8594;52.052;8.354;2023-07-29T06:38:21;99685.00;;;23.90
16956;BMP180;8594;52.052;8.354;2023-07-29T06:40:48;99691.00;;;23.70
16956;BMP180;8594;52.052;8.354;2023-07-29T06:43:16;99699.00;;;23.40
16956;BMP180;8594;52.052;8.354;2023-07-29T06:45:43;99702.00;;;23.40
16956;BMP180;8594;52.052;8.354;2023-07-29T06:48:11;99715.00;;;23.30
16956;BMP180;8594;52.052;8.354;2023-07-29T06:50:38;99724.00;;;23.20
16956;BMP180;8594;52.052;8.354;2023-07-29T06:53:06;99721.00;;;23.30
16956;BMP180;8594;52.052;8.354;2023-07-29T06:55:33;99731.00;;;23.40
16956;BMP180;8594;52.052;8.354;2023-07-29T06:57:59;99737.00;;;23.40
16956;BMP180;8594;52.052;8.354;2023-07-29T07:00:26;99742.00;;;23.30
16956;BMP180;8594;52.052;8.354;2023-07-29T07:02:53;99745.00;;;23.10
16956;BMP180;8594;52.052;8.354;2023-07-29T07:05:21;99748.00;;;23.40
16956;BMP180;8594;52.052;8.354;2023-07-29T07:07:49;99757.00;;;23.30
16956;BMP180;8594;52.052;8.354;2023-07-29T07:10:16;99760.00;;;23.40
16956;BMP180;8594;52.052;8.354;2023-07-29T07:12:42;99762.00;;;23.20
16956;BMP180;8594;52.052;8.354;2023-07-29T07:15:10;99767.00;;;23.20
16956;BMP180;8594;52.052;8.354;2023-07-29T07:17:37;99758.00;;;23.20
16956;BMP180;8594;52.052;8.354;2023-07-29T07:20:05;99761.00;;;23.40
16956;BMP180;8594;52.052;8.354;2023-07-29T07:22:33;99759.00;;;23.40
16956;BMP180;8594;52.052;8.354;2023-07-29T07:25:00;99763.00;;;23.40
16956;BMP180;8594;52.052;8.354;2023-07-29T07:27:27;99771.00;;;23.50
16956;BMP180;8594;52.052;8.354;2023-07-29T07:29:54;99766.00;;;23.70
16956;BMP180;8594;52.052;8.354;2023-07-29T07:32:21;99770.00;;;23.80
16956;BMP180;8594;52.052;8.354;2023-07-29T07:34:48;99766.00;;;23.90
16956;BMP180;8594;52.052;8.354;2023-07-29T07:37:15;99772.00;;;23.90
16956;BMP180;8594;52.052;8.354;2023-07-29T07:39:43;99762.00;;;23.80
16956;BMP180;8594;52.052;8.354;2023-07-29T07:42:10;99754.00;;;24.10
16956;BMP180;8594;52.052;8.354;2023-07-29T07:44:37;99758.00;;;24.40
16956;BMP180;8594;52.052;8.354;2023-07-29T07:47:04;99748.00;;;24.50
16956;BMP180;8594;52.052;8.354;2023-07-29T07:49:31;99748.00;;;24.20
16956;BMP180;8594;52.052;8.354;2023-07-29T07:51:58;99747.00;;;24.40
16956;BMP180;8594;52.052;8.354;2023-07-29T07:54:24;99745.00;;;24.40
16956;BMP180;8594;52.052;8.354;2023-07-29T07:56:53;99744.00;;;24.20
16956;BMP180;8594;52.052;8.354;2023-07-29T07:59:19;99745.00;;;24.30
16956;BMP180;8594;52.052;8.354;2023-07-29T08:01:46;99751.00;;;24.80
16956;BMP180;8594;52.052;8.354;2023-07-29T08:04:13;99739.00;;;24.70
16956;BMP180;8594;52.052;8.354;2023-07-29T08:06:40;99757.00;;;24.70
16956;BMP180;8594;52.052;8.354;2023-07-29T08:09:07;99753.00;;;24.70
16956;BMP180;8594;52.052;8.354;2023-07-29T08:11:34;99761.00;;;24.50
16956;BMP180;8594;52.052;8.354;2023-07-29T08:14:02;99764.00;;;24.20
16956;BMP180;8594;52.052;8.354;2023-07-29T08:16:29;99757.00;;;24.30
16956;BMP180;8594;52.052;8.354;2023-07-29T08:18:56;99762.00;;;24.30
16956;BMP180;8594;52.052;8.354;2023-07-29T08:21:23;99759.00;;;24.40
16956;BMP180;8594;52.052;8.354;2023-07-29T08:23:49;99759.00;;;24.60
16956;BMP180;8594;52.052;8.354;2023-07-29T08:26:16;99772.00;;;24.60
16956;BMP180;8594;52.052;8.354;2023-07-29T08:28:43;99778.00;;;24.40
16956;BMP180;8594;52.052;8.354;2023-07-29T08:31:12;99782.00;;;24.20
16956;BMP180;8594;52.052;8.354;2023-07-29T08:33:38;99781.00;;;24.40
16956;BMP180;8594;52.052;8.354;2023-07-29T08:36:05;99785.00;;;24.40
16956;BMP180;8594;52.052;8.354;2023-07-29T08:38:32;99780.00;;;24.50
16956;BMP180;8594;52.052;8.354;2023-07-29T08:41:08;99786.00;;;24.80
16956;BMP180;8594;52.052;8.354;2023-07-29T08:43:39;99778.00;;;24.10
16956;BMP180;8594;52.052;8.354;2023-07-29T08:46:11;99781.00;;;24.00
16956;BMP180;8594;52.052;8.354;2023-07-29T08:48:41;99780.00;;;24.10
16956;BMP180;8594;52.052;8.354;2023-07-29T08:51:10;99776.00;;;24.60
16956;BMP180;8594;52.052;8.354;2023-07-29T08:53:39;99775.00;;;25.00
16956;BMP180;8594;52.052;8.354;2023-07-29T08:56:07;99767.00;;;24.90
16956;BMP180;8594;52.052;8.354;2023-07-29T08:58:34;99773.00;;;24.80
16956;BMP180;8594;52.052;8.354;2023-07-29T09:01:01;99763.00;;;25.50
16956;BMP180;8594;52.052;8.354;2023-07-29T09:03:30;99768.00;;;25.60
16956;BMP180;8594;52.052;8.354;2023-07-29T09:05:58;99768.00;;;25.70
16956;BMP180;8594;52.052;8.354;2023-07-29T09:08:26;99767.00;;;25.50
16956;BMP180;8594;52.052;8.354;2023-07-29T09:10:54;99775.00;;;25.70
16956;BMP180;8594;52.052;8.354;2023-07-29T09:13:21;99777.00;;;25.90
16956;BMP180;8594;52.052;8.354;2023-07-29T09:15:49;99775.00;;;25.90
16956;BMP180;8594;52.052;8.354;2023-07-29T09:18:19;99767.00;;;26.10
16956;BMP180;8594;52.052;8.354;2023-07-29T09:20:49;99767.00;;;26.30
16956;BMP180;8594;52.052;8.354;2023-07-29T09:23:16;99771.00;;;26.10
16956;BMP180;8594;52.052;8.354;2023-07-29T09:25:46;99787.00;;;26.00
16956;BMP180;8594;52.052;8.354;2023-07-29T09:28:15;99779.00;;;26.30
16956;BMP180;8594;52.052;8.354;2023-07-29T09:30:46;99782.00;;;26.90
16956;BMP180;8594;52.052;8.354;2023-07-29T09:33:13;99782.00;;;26.60
16956;BMP180;8594;52.052;8.354;2023-07-29T09:35:41;99780.00;;;26.50
16956;BMP180;8594;52.052;8.354;2023-07-29T09:38:14;99793.00;;;26.20
16956;BMP180;8594;52.052;8.354;2023-07-29T09:40:41;99788.00;;;27.20
16956;BMP180;8594;52.052;8.354;2023-07-29T09:43:11;99790.00;;;26.90
16956;BMP180;8594;52.052;8.354;2023-07-29T09:45:38;99784.00;;;26.40
16956;BMP180;8594;52.052;8.354;2023-07-29T09:48:05;99797.00;;;26.60
16956;BMP180;8594;52.052;8.354;2023-07-29T09:50:36;99793.00;;;26.60
16956;BMP180;8594;52.052;8.354;2023-07-29T09:53:02;99786.00;;;26.70
16956;BMP180;8594;52.052;8.354;2023-07-29T09:55:33;99799.00;;;26.50
16956;BMP180;8594;52.052;8.354;2023-07-29T09:58:02;99798.00;;;27.30
16956;BMP180;8594;52.052;8.354;2023-07-29T10:00:32;99789.00;;;27.60
16956;BMP180;8594;52.052;8.354;2023-07-29T10:03:00;99785.00;;;27.80
16956;BMP180;8594;52.052;8.354;2023-07-29T10:05:28;99797.00;;;26.40
16956;BMP180;8594;52.052;8.354;2023-07-29T10:07:56;99802.00;;;27.00
16956;BMP180;8594;52.052;8.354;2023-07-29T10:10:24;99789.00;;;26.30
16956;BMP180;8594;52.052;8.354;2023-07-29T10:12:53;99796.00;;;26.20
16956;BMP180;8594;52.052;8.354;2023-07-29T10:15:21;99782.00;;;26.50
16956;BMP180;8594;52.052;8.354;2023-07-29T10:17:51;99777.00;;;26.80
16956;BMP180;8594;52.052;8.354;2023-07-29T10:20:18;99790.00;;;27.10
16956;BMP180;8594;52.052;8.354;2023-07-29T10:22:47;99781.00;;;27.30
16956;BMP180;8594;52.052;8.354;2023-07-29T10:25:17;99797.00;;;27.30
16956;BMP180;8594;52.052;8.354;2023-07-29T10:27:55;99791.00;;;27.10
16956;BMP180;8594;52.052;8.354;2023-07-29T10:30:24;99793.00;;;26.60
16956;BMP180;8594;52.052;8.354;2023-07-29T10:32:53;99793.00;;;27.20
16956;BMP180;8594;52.052;8.354;2023-07-29T10:35:20;99792.00;;;27.30
16956;BMP180;8594;52.052;8.354;2023-07-29T10:37:47;99786.00;;;27.50
16956;BMP180;8594;52.052;8.354;2023-07-29T10:40:16;99788.00;;;28.00
16956;BMP180;8594;52.052;8.354;2023-07-29T10:43:01;99795.00;;;27.70
16956;BMP180;8594;52.052;8.354;2023-07-29T10:45:37;99791.00;;;27.50
16956;BMP180;8594;52.052;8.354;2023-07-29T10:48:06;99792.00;;;27.90
16956;BMP180;8594;52.052;8.354;2023-07-29T10:50:34;99798.00;;;28.10
16956;BMP180;8594;52.052;8.354;2023-07-29T10:53:01;99793.00;;;27.50
16956;BMP180;8594;52.052;8.354;2023-07-29T10:55:31;99778.00;;;27.20
16956;BMP180;8594;52.052;8.354;2023-07-29T10:58:16;99783.00;;;27.80
16956;BMP180;8594;52.052;8.354;2023-07-29T11:00:44;99790.00;;;27.50
16956;BMP180;8594;52.052;8.354;2023-07-29T11:03:13;99790.00;;;27.00
16956;BMP180;8594;52.052;8.354;2023-07-29T11:05:49;99790.00;;;27.00
16956;BMP180;8594;52.052;8.354;2023-07-29T11:08:21;99799.00;;;27.30
16956;BMP180;8594;52.052;8.354;2023-07-29T11:11:00;99799.00;;;27.60
16956;BMP180;8594;52.052;8.354;2023-07-29T11:13:30;99791.00;;;27.50
16956;BMP180;8594;52.052;8.354;2023-07-29T11:15:59;99788.00;;;27.20
16956;BMP180;8594;52.052;8.354;2023-07-29T11:18:28;99797.00;;;27.70
16956;BMP180;8594;52.052;8.354;2023-07-29T11:20:57;99794.00;;;27.30
16956;BMP180;8594;52.052;8.354;2023-07-29T11:23:32;99787.00;;;27.40
16956;BMP180;8594;52.052;8.354;2023-07-29T11:26:00;99785.00;;;27.30
16956;BMP180;8594;52.052;8.354;2023-07-29T11:28:29;99788.00;;;27.10
16956;BMP180;8594;52.052;8.354;2023-07-29T11:30:56;99784.00;;;27.10
16956;BMP180;8594;52.052;8.354;2023-07-29T11:33:25;99771.00;;;27.90
16956;BMP180;8594;52.052;8.354;2023-07-29T11:35:53;99769.00;;;27.80
16956;BMP180;8594;52.052;8.354;2023-07-29T11:38:22;99762.00;;;28.30
16956;BMP180;8594;52.052;8.354;2023-07-29T11:40:58;99773.00;;;28.80
16956;BMP180;8594;52.052;8.354;2023-07-29T11:43:25;99771.00;;;28.20
16956;BMP180;8594;52.052;8.354;2023-07-29T11:45:54;99767.00;;;28.10
16956;BMP180;8594;52.052;8.354;2023-07-29T11:48:28;99770.00;;;28.00
16956;BMP180;8594;52.052;8.354;2023-07-29T11:50:55;99778.00;;;28.20
16956;BMP180;8594;52.052;8.354;2023-07-29T11:53:22;99775.00;;;28.80
16956;BMP180;8594;52.052;8.354;2023-07-29T11:55:52;99770.00;;;28.90
16956;BMP180;8594;52.052;8.354;2023-07-29T11:58:20;99778.00;;;28.50
16956;BMP180;8594;52.052;8.354;2023-07-29T12:00:48;99781.00;;;28.70
16956;BMP180;8594;52.052;8.354;2023-07-29T12:03:17;99782.00;;;28.50
16956;BMP180;8594;52.052;8.354;2023-07-29T12:05:44;99775.00;;;29.00
16956;BMP180;8594;52.052;8.354;2023-07-29T12:08:11;99768.00;;;28.60
16956;BMP180;8594;52.052;8.354;2023-07-29T12:10:39;99778.00;;;28.30
16956;BMP180;8594;52.052;8.354;2023-07-29T12:13:08;99784.00;;;28.50
16956;BMP180;8594;52.052;8.354;2023-07-29T12:15:37;99771.00;;;28.40
16956;BMP180;8594;52.052;8.354;2023-07-29T12:18:05;99788.00;;;28.40
16956;BMP180;8594;52.052;8.354;2023-07-29T12:20:34;99788.00;;;28.40
16956;BMP180;8594;52.052;8.354;2023-07-29T12:23:01;99782.00;;;28.00
16956;BMP180;8594;52.052;8.354;2023-07-29T12:25:31;99783.00;;;27.80
16956;BMP180;8594;52.052;8.354;2023-07-29T12:28:03;99786.00;;;27.90
16956;BMP180;8594;52.052;8.354;2023-07-29T12:30:30;99790.00;;;27.80
16956;BMP180;8594;52.052;8.354;2023-07-29T12:32:57;99795.00;;;27.90
16956;BMP180;8594;52.052;8.354;2023-07-29T12:35:35;99796.00;;;27.90
16956;BMP180;8594;52.052;8.354;2023-07-29T12:38:02;99803.00;;;27.70
16956;BMP180;8594;52.052;8.354;2023-07-29T12:40:29;99795.00;;;27.80
16956;BMP180;8594;52.052;8.354;2023-07-29T12:42:56;99790.00;;;27.50
16956;BMP180;8594;52.052;8.354;2023-07-29T12:45:23;99799.00;;;28.20
16956;BMP180;8594;52.052;8.354;2023-07-29T12:47:52;99797.00;;;28.60
16956;BMP180;8594;52.052;8.354;2023-07-29T12:50:19;99779.00;;;28.00
16956;BMP180;8594;52.052;8.354;2023-07-29T12:52:48;99788.00;;;28.20
16956;BMP180;8594;52.052;8.354;2023-07-29T12:55:15;99778.00;;;28.70
16956;BMP180;8594;52.052;8.354;2023-07-29T12:57:42;99782.00;;;28.30
16956;BMP180;8594;52.052;8.354;2023-07-29T13:00:11;99775.00;;;28.80
16956;BMP180;8594;52.052;8.354;2023-07-29T13:02:38;99785.00;;;28.80
16956;BMP180;8594;52.052;8.354;2023-07-29T13:05:08;99765.00;;;28.90
16956;BMP180;8594;52.052;8.354;2023-07-29T13:07:35;99770.00;;;28.70
16956;BMP180;8594;52.052;8.354;2023-07-29T13:10:05;99771.00;;;29.00
16956;BMP180;8594;52.052;8.354;2023-07-29T13:12:32;99775.00;;;29.00
16956;BMP180;8594;52.052;8.354;2023-07-29T13:14:59;99773.00;;;29.00
16956;BMP180;8594;52.052;8.354;2023-07-29T13:17:26;99774.00;;;29.00
16956;BMP180;8594;52.052;8.354;2023-07-29T13:19:53;99777.00;;;28.90
16956;BMP180;8594;52.052;8.354;2023-07-29T13:22:20;99778.00;;;28.60
16956;BMP180;8594;52.052;8.354;2023-07-29T13:24:47;99788.00;;;28.10
16956;BMP180;8594;52.052;8.354;2023-07-29T13:27:16;99788.00;;;28.40
16956;BMP180;8594;52.052;8.354;2023-07-29T13:29:42;99788.00;;;28.90
16956;BMP180;8594;52.052;8.354;2023-07-29T13:32:10;99786.00;;;28.70
16956;BMP180;8594;52.052;8.354;2023-07-29T13:34:37;99792.00;;;29.00
16956;BMP180;8594;52.052;8.354;2023-07-29T13:37:06;99790.00;;;28.60
16956;BMP180;8594;52.052;8.354;2023-07-29T13:39:33;99790.00;;;28.20
16956;BMP180;8594;52.052;8.354;2023-07-29T13:41:59;99788.00;;;28.40
16956;BMP180;8594;52.052;8.354;2023-07-29T13:44:28;99782.00;;;28.60
16956;BMP180;8594;52.052;8.354;2023-07-29T13:46:54;99787.00;;;29.00
16956;BMP180;8594;52.052;8.354;2023-07-29T13:49:21;99779.00;;;29.10
16956;BMP180;8594;52.052;8.354;2023-07-29T13:51:48;99785.00;;;28.60
16956;BMP180;8594;52.052;8.354;2023-07-29T13:54:15;99790.00;;;29.20
16956;BMP180;8594;52.052;8.354;2023-07-29T13:56:42;99790.00;;;29.30
16956;BMP180;8594;52.052;8.354;2023-07-29T13:59:09;99783.00;;;29.30
16956;BMP180;8594;52.052;8.354;2023-07-29T14:01:37;99780.00;;;29.50
16956;BMP180;8594;52.052;8.354;2023-07-29T14:04:04;99788.00;;;29.30
16956;BMP180;8594;52.052;8.354;2023-07-29T14:06:32;99784.00;;;29.20
16956;BMP180;8594;52.052;8.354;2023-07-29T14:08:58;99788.00;;;29.10
16956;BMP180;8594;52.052;8.354;2023-07-29T14:11:25;99789.00;;;28.90
16956;BMP180;8594;52.052;8.354;2023-07-29T14:13:52;99789.00;;;28.70
16956;BMP180;8594;52.052;8.354;2023-07-29T14:16:19;99788.00;;;28.80
16956;BMP180;8594;52.052;8.354;2023-07-29T14:18:47;99785.00;;;29.30
16956;BMP180;8594;52.052;8.354;2023-07-29T14:21:14;99792.00;;;28.80
16956;BMP180;8594;52.052;8.354;2023-07-29T14:23:41;99792.00;;;29.20
16956;BMP180;8594;52.052;8.354;2023-07-29T14:26:08;99788.00;;;28.30